ESMT/HAD METAR and TAF weather

Enter ICAO airport designator
Station Type Date Time Source
ESMT METAR 2019/08/19 11:50 UTC NOAA

ESMT 191150Z 22017KT 9999 SCT021 20/14 Q1010


Station Type Date Time Source
ESMT Decoded METAR 2019/08/19 11:50 UTC NOAA

Station name not available
Aug 19, 2019 - 07:50 AM EDT / 2019.08.19 1150 UTC
Wind: from the SW (220 degrees) at 20 MPH (17 KT):0
Visibility: greater than 7 mile(s):0
Sky conditions: partly cloudy
Temperature: 68 F (20 C)
Dew Point: 57 F (14 C)
Relative Humidity: 68%
Pressure (altimeter): 29.83 in. Hg (1010 hPa)
ob: ESMT 191150Z 22017KT 9999 SCT021 20/14 Q1010
cycle: 12

Station Type Date Time Source
ESMT TAF 2017/04/24 06:33 UTC NOAA

TAF TAF ESMT 240513Z 2406/2506 22018KT 9999 BKN018
TEMPO 2406/2413 22018G30KT 4000 RADZ BKN008
TEMPO 2413/2415 24020G30KT 4000 SHRA BKN014 SCT020CB

Example: see airport list